createdAt,value
2023-06-06T15:35:20.203Z,86.80
2023-06-06T15:37:46.904Z,87.00
2023-06-06T15:40:13.597Z,86.80
2023-06-06T15:42:45.307Z,86.50
2023-06-06T15:45:12.327Z,86.00
2023-06-06T15:47:38.970Z,87.70
2023-06-06T15:50:06.045Z,88.50
2023-06-06T15:52:32.609Z,88.10
2023-06-06T15:54:59.565Z,87.40
2023-06-06T15:57:26.315Z,88.10
2023-06-06T15:59:53.094Z,88.90
2023-06-06T16:02:19.958Z,90.20
2023-06-06T16:04:46.508Z,88.30
2023-06-06T16:07:13.904Z,88.20
2023-06-06T16:09:40.587Z,87.60
2023-06-06T16:12:07.894Z,88.10
2023-06-06T16:14:34.516Z,86.30
2023-06-06T16:17:01.088Z,86.30
2023-06-06T16:19:27.702Z,84.40
2023-06-06T16:21:54.253Z,86.00
2023-06-06T16:24:20.908Z,86.00
2023-06-06T16:26:47.771Z,84.80
2023-06-06T16:29:14.340Z,85.60
2023-06-06T16:31:41.010Z,87.00
2023-06-06T16:34:07.571Z,86.60
2023-06-06T16:36:34.165Z,85.50
2023-06-06T16:39:01.504Z,87.40
2023-06-06T16:41:28.292Z,86.70
2023-06-06T16:43:54.855Z,86.90
2023-06-06T16:46:21.820Z,87.00
2023-06-06T16:48:48.744Z,86.80
2023-06-06T16:51:17.395Z,86.20
2023-06-06T16:53:44.643Z,85.90
2023-06-06T16:56:11.174Z,86.30
2023-06-06T16:58:37.707Z,85.50
2023-06-06T17:01:04.282Z,85.60
2023-06-06T17:03:30.963Z,87.10
2023-06-06T17:05:57.625Z,87.10
2023-06-06T17:08:24.555Z,83.30
2023-06-06T17:10:51.100Z,83.70
2023-06-06T17:13:19.141Z,82.40
2023-06-06T17:15:47.323Z,81.00
2023-06-06T17:18:14.576Z,80.40
2023-06-06T17:20:41.483Z,79.70
2023-06-06T17:23:08.018Z,79.30
2023-06-06T17:28:08.382Z,80.70
2023-06-06T17:30:34.922Z,79.90
2023-06-06T17:33:01.576Z,79.30
2023-06-06T17:35:29.386Z,79.70
2023-06-06T17:37:56.654Z,79.10
2023-06-06T17:40:23.208Z,78.80
2023-06-06T17:42:52.216Z,78.40
2023-06-06T17:45:18.947Z,78.70
2023-06-06T17:47:45.591Z,79.20
2023-06-06T17:50:12.741Z,78.90
2023-06-06T17:52:39.306Z,77.80
2023-06-06T17:55:06.087Z,78.10
2023-06-06T17:57:32.626Z,77.80
2023-06-06T17:59:59.415Z,77.50
2023-06-06T18:02:26.191Z,78.40
2023-06-06T18:04:52.848Z,78.90
2023-06-06T18:07:19.843Z,79.60
2023-06-06T18:09:46.336Z,80.00
2023-06-06T18:12:12.857Z,80.40
2023-06-06T18:14:39.539Z,80.50
2023-06-06T18:17:06.100Z,81.50
2023-06-06T18:19:32.658Z,81.00
2023-06-06T18:21:59.205Z,81.40
2023-06-06T18:24:25.759Z,80.80
2023-06-06T18:26:52.321Z,81.50
2023-06-06T18:29:18.880Z,80.60
2023-06-06T18:31:47.863Z,81.20
2023-06-06T18:34:14.436Z,80.70
2023-06-06T18:36:40.968Z,80.80
2023-06-06T18:39:08.193Z,81.30
2023-06-06T18:41:34.757Z,81.90
2023-06-06T18:44:01.402Z,81.70
2023-06-06T18:46:27.964Z,82.10
2023-06-06T18:48:54.831Z,83.30
2023-06-06T18:51:21.456Z,83.90
2023-06-06T18:53:47.989Z,84.00
2023-06-06T18:56:17.439Z,84.60
2023-06-06T18:58:45.831Z,84.10
2023-06-06T19:01:13.241Z,85.50
2023-06-06T19:03:40.809Z,85.60
2023-06-06T19:06:07.570Z,85.80
2023-06-06T19:08:35.695Z,85.60
2023-06-06T19:11:08.696Z,85.90
2023-06-06T19:13:35.212Z,86.00
2023-06-06T19:16:01.868Z,86.60
2023-06-06T19:18:32.039Z,86.60
2023-06-06T19:20:59.228Z,87.00
2023-06-06T19:23:25.855Z,87.40
2023-06-06T19:25:52.536Z,88.20
2023-06-06T19:28:19.039Z,88.10
2023-06-06T19:30:46.284Z,88.10
2023-06-06T19:33:17.588Z,88.90
2023-06-06T19:35:44.682Z,89.30
2023-06-06T19:38:11.290Z,88.40
2023-06-06T19:40:37.827Z,87.90
2023-06-06T19:43:04.622Z,87.60
2023-06-06T19:45:31.364Z,87.90
2023-06-06T19:47:58.028Z,88.70
2023-06-06T19:50:24.698Z,88.90
2023-06-06T19:52:51.607Z,87.50
2023-06-06T19:55:18.210Z,88.30
2023-06-06T19:57:46.404Z,89.40
2023-06-06T20:00:14.119Z,89.20
2023-06-06T20:02:40.946Z,89.10
2023-06-06T20:05:08.617Z,89.10
2023-06-06T20:07:35.250Z,89.20
2023-06-06T20:10:02.236Z,90.10
2023-06-06T20:12:30.029Z,90.60
2023-06-06T20:14:57.179Z,90.50
2023-06-06T20:17:23.846Z,90.40
2023-06-06T20:19:50.511Z,90.70
2023-06-06T20:22:17.175Z,91.00
2023-06-06T20:24:43.915Z,91.10
2023-06-06T20:27:10.513Z,91.20
2023-06-06T20:29:37.207Z,91.60
2023-06-06T20:32:03.796Z,91.40
2023-06-06T20:34:30.461Z,91.30
2023-06-06T20:36:58.673Z,91.30
2023-06-06T20:39:35.181Z,91.40
2023-06-06T20:42:01.741Z,91.40
2023-06-06T20:44:29.634Z,91.50
2023-06-06T20:46:58.285Z,91.70
2023-06-06T20:49:24.876Z,91.60
2023-06-06T20:51:51.544Z,91.60
2023-06-06T20:54:18.205Z,91.70
2023-06-06T20:56:44.779Z,91.90
2023-06-06T20:59:11.341Z,92.00
2023-06-06T21:01:37.873Z,91.90
2023-06-06T21:04:04.412Z,92.00
2023-06-06T21:06:31.082Z,92.10
2023-06-06T21:08:57.653Z,92.10
2023-06-06T21:11:24.193Z,92.50
2023-06-06T21:13:51.976Z,92.40
2023-06-06T21:16:18.706Z,92.60
2023-06-06T21:18:45.684Z,92.50
2023-06-06T21:21:12.301Z,92.50
2023-06-06T21:23:38.895Z,92.60
2023-06-06T21:26:05.531Z,92.50
2023-06-06T21:28:34.650Z,92.70
2023-06-06T21:31:01.657Z,93.00
2023-06-06T21:33:29.285Z,92.60
2023-06-06T21:35:55.805Z,92.80
2023-06-06T21:38:22.325Z,92.80
2023-06-06T21:40:48.865Z,92.90
2023-06-06T21:43:15.615Z,93.10
2023-06-06T21:45:42.211Z,93.20
2023-06-06T21:48:08.767Z,93.30
2023-06-06T21:50:35.440Z,93.40
2023-06-06T21:53:01.993Z,93.40
2023-06-06T21:55:28.517Z,93.40
2023-06-06T21:57:55.058Z,93.60
2023-06-06T22:00:23.538Z,93.30
2023-06-06T22:02:50.139Z,93.40
2023-06-06T22:05:16.709Z,93.10
2023-06-06T22:07:44.049Z,92.90
2023-06-06T22:10:11.865Z,92.80
2023-06-06T22:12:38.761Z,92.80
2023-06-06T22:15:05.371Z,92.70
2023-06-06T22:17:31.931Z,92.70
2023-06-06T22:19:58.512Z,92.90
2023-06-06T22:22:25.082Z,93.00
2023-06-06T22:24:51.826Z,93.20
2023-06-06T22:27:18.490Z,93.20
2023-06-06T22:29:47.598Z,93.40
2023-06-06T22:32:15.093Z,93.40
2023-06-06T22:34:41.724Z,93.80
2023-06-06T22:37:08.277Z,93.80
2023-06-06T22:39:34.908Z,93.90
2023-06-06T22:42:01.458Z,94.00
2023-06-06T22:44:27.993Z,94.00
2023-06-06T22:46:54.540Z,94.20
2023-06-06T22:49:21.074Z,94.20
2023-06-06T22:51:47.625Z,94.30
2023-06-06T22:54:14.212Z,94.50
2023-06-06T22:56:40.790Z,94.70
2023-06-06T22:59:07.375Z,95.00
2023-06-06T23:01:33.975Z,94.90
2023-06-06T23:04:01.020Z,95.10
2023-06-06T23:06:27.713Z,95.20
2023-06-06T23:08:54.281Z,95.40
2023-06-06T23:11:20.800Z,95.50
2023-06-06T23:13:47.328Z,95.70
2023-06-06T23:16:13.943Z,95.70
2023-06-06T23:18:40.484Z,95.90
2023-06-06T23:21:07.078Z,96.00
2023-06-06T23:23:33.720Z,96.10
2023-06-06T23:26:01.047Z,96.30
2023-06-06T23:28:27.661Z,96.30
2023-06-06T23:30:54.238Z,96.40
2023-06-06T23:33:20.779Z,96.50
2023-06-06T23:35:47.286Z,96.70
2023-06-06T23:38:13.850Z,96.90
2023-06-06T23:40:40.449Z,96.90
2023-06-06T23:43:06.989Z,97.00
2023-06-06T23:45:33.564Z,97.10
2023-06-06T23:48:00.260Z,97.10
2023-06-06T23:50:26.882Z,97.20
2023-06-06T23:52:53.442Z,97.30
2023-06-06T23:55:19.986Z,97.40
2023-06-06T23:57:46.566Z,97.50
